sensor_id;sensor_type;location;lat;lon;timestamp;pressure;altitude;pressure_sealevel;temperature;humidity
10796;BME280;5450;42.994;23.372;2022-08-19T00:02:18;96081.88;;;20.25;100.00
10796;BME280;5450;42.994;23.372;2022-08-19T00:05:21;96082.38;;;20.22;100.00
10796;BME280;5450;42.994;23.372;2022-08-19T00:07:50;96088.69;;;19.98;100.00
10796;BME280;5450;42.994;23.372;2022-08-19T00:10:18;96093.69;;;20.06;100.00
10796;BME280;5450;42.994;23.372;2022-08-19T00:12:51;96092.06;;;20.05;100.00
10796;BME280;5450;42.994;23.372;2022-08-19T00:15:20;96074.91;;;20.01;100.00
10796;BME280;5450;42.994;23.372;2022-08-19T00:17:54;96092.06;;;20.05;100.00
10796;BME280;5450;42.994;23.372;2022-08-19T00:20:22;96086.94;;;20.03;100.00
10796;BME280;5450;42.994;23.372;2022-08-19T00:23:00;96090.44;;;20.04;100.00
10796;BME280;5450;42.994;23.372;2022-08-19T00:25:32;96066.56;;;19.86;100.00
10796;BME280;5450;42.994;23.372;2022-08-19T00:28:00;96099.72;;;20.13;100.00
10796;BME280;5450;42.994;23.372;2022-08-19T00:30:28;96102.25;;;20.08;100.00
10796;BME280;5450;42.994;23.372;2022-08-19T00:32:55;96093.94;;;20.16;100.00
10796;BME280;5450;42.994;23.372;2022-08-19T00:35:23;96029.19;;;19.62;100.00
10796;BME280;5450;42.994;23.372;2022-08-19T00:37:52;96087.56;;;20.05;100.00
10796;BME280;5450;42.994;23.372;2022-08-19T00:40:22;96079.06;;;19.97;100.00
10796;BME280;5450;42.994;23.372;2022-08-19T00:42:52;96096.00;;;19.91;100.00
10796;BME280;5450;42.994;23.372;2022-08-19T00:45:50;96082.09;;;19.89;100.00
10796;BME280;5450;42.994;23.372;2022-08-19T00:48:19;96081.84;;;19.79;100.00
10796;BME280;5450;42.994;23.372;2022-08-19T00:50:49;96082.78;;;19.73;100.00
10796;BME280;5450;42.994;23.372;2022-08-19T00:53:22;96085.31;;;19.67;100.00
10796;BME280;5450;42.994;23.372;2022-08-19T00:55:55;96075.75;;;19.48;100.00
10796;BME280;5450;42.994;23.372;2022-08-19T00:58:27;96078.28;;;19.43;100.00
10796;BME280;5450;42.994;23.372;2022-08-19T01:01:29;96065.56;;;19.45;100.00
10796;BME280;5450;42.994;23.372;2022-08-19T01:03:59;96051.56;;;19.20;100.00
10796;BME280;5450;42.994;23.372;2022-08-19T01:06:28;96031.81;;;18.80;100.00
10796;BME280;5450;42.994;23.372;2022-08-19T01:08:56;96068.75;;;19.06;100.00
10796;BME280;5450;42.994;23.372;2022-08-19T01:11:36;96073.97;;;19.01;100.00
10796;BME280;5450;42.994;23.372;2022-08-19T01:14:07;96005.59;;;18.65;100.00
10796;BME280;5450;42.994;23.372;2022-08-19T01:16:37;96083.13;;;18.87;100.00
10796;BME280;5450;42.994;23.372;2022-08-19T01:19:11;96075.25;;;19.10;100.00
10796;BME280;5450;42.994;23.372;2022-08-19T01:21:43;96075.13;;;19.05;100.00
10796;BME280;5450;42.994;23.372;2022-08-19T01:24:15;96076.72;;;19.06;100.00
10796;BME280;5450;42.994;23.372;2022-08-19T01:26:44;96073.47;;;19.04;100.00
10796;BME280;5450;42.994;23.372;2022-08-19T01:29:15;96078.78;;;18.92;100.00
10796;BME280;5450;42.994;23.372;2022-08-19T01:31:48;96072.06;;;18.90;100.00
10796;BME280;5450;42.994;23.372;2022-08-19T01:37:27;96017.38;;;18.40;100.00
10796;BME280;5450;42.994;23.372;2022-08-19T01:40:07;96079.63;;;18.75;100.00
10796;BME280;5450;42.994;23.372;2022-08-19T01:42:37;96083.59;;;18.66;100.00
10796;BME280;5450;42.994;23.372;2022-08-19T01:45:08;96088.03;;;18.72;100.00
10796;BME280;5450;42.994;23.372;2022-08-19T01:47:36;96084.47;;;18.78;100.00
10796;BME280;5450;42.994;23.372;2022-08-19T01:50:05;96096.03;;;18.72;100.00
10796;BME280;5450;42.994;23.372;2022-08-19T01:53:07;96097.66;;;18.73;100.00
10796;BME280;5450;42.994;23.372;2022-08-19T01:55:41;96086.53;;;18.76;100.00
10796;BME280;5450;42.994;23.372;2022-08-19T01:58:10;96085.66;;;18.82;100.00
10796;BME280;5450;42.994;23.372;2022-08-19T02:00:44;96087.28;;;18.83;100.00
10796;BME280;5450;42.994;23.372;2022-08-19T02:06:24;96085.06;;;18.80;100.00
10796;BME280;5450;42.994;23.372;2022-08-19T02:09:28;96088.53;;;18.80;100.00
10796;BME280;5450;42.994;23.372;2022-08-19T02:11:56;96086.94;;;18.79;100.00
10796;BME280;5450;42.994;23.372;2022-08-19T02:14:24;96066.31;;;18.57;100.00
10796;BME280;5450;42.994;23.372;2022-08-19T02:16:51;96095.13;;;18.78;100.00
10796;BME280;5450;42.994;23.372;2022-08-19T02:19:23;96051.25;;;18.51;100.00
10796;BME280;5450;42.994;23.372;2022-08-19T02:21:55;96089.53;;;18.68;100.00
10796;BME280;5450;42.994;23.372;2022-08-19T02:24:56;96095.84;;;18.67;100.00
10796;BME280;5450;42.994;23.372;2022-08-19T02:27:28;96095.72;;;18.62;100.00
10796;BME280;5450;42.994;23.372;2022-08-19T02:29:59;96086.56;;;18.58;100.00
10796;BME280;5450;42.994;23.372;2022-08-19T02:32:26;96011.28;;;17.96;100.00
10796;BME280;5450;42.994;23.372;2022-08-19T02:34:55;96087.72;;;18.44;100.00
10796;BME280;5450;42.994;23.372;2022-08-19T02:37:28;96097.72;;;18.48;100.00
10796;BME280;5450;42.994;23.372;2022-08-19T02:40:12;96089.78;;;18.42;100.00
10796;BME280;5450;42.994;23.372;2022-08-19T02:42:45;96100.06;;;18.38;100.00
10796;BME280;5450;42.994;23.372;2022-08-19T02:45:17;96101.31;;;18.36;100.00
10796;BME280;5450;42.994;23.372;2022-08-19T02:47:46;96095.41;;;18.34;100.00
10796;BME280;5450;42.994;23.372;2022-08-19T02:50:16;96095.22;;;18.29;100.00
10796;BME280;5450;42.994;23.372;2022-08-19T02:52:44;96105.41;;;18.13;100.00
10796;BME280;5450;42.994;23.372;2022-08-19T02:55:11;96087.16;;;17.99;100.00
10796;BME280;5450;42.994;23.372;2022-08-19T02:58:10;96110.50;;;18.15;100.00
10796;BME280;5450;42.994;23.372;2022-08-19T03:00:44;96107.06;;;18.14;100.00
10796;BME280;5450;42.994;23.372;2022-08-19T03:03:12;96104.00;;;18.11;100.00
10796;BME280;5450;42.994;23.372;2022-08-19T03:05:39;96086.56;;;17.97;100.00
10796;BME280;5450;42.994;23.372;2022-08-19T03:08:06;96112.31;;;18.21;100.00
10796;BME280;5450;42.994;23.372;2022-08-19T03:10:59;96106.56;;;17.99;100.00
10796;BME280;5450;42.994;23.372;2022-08-19T03:13:34;96109.00;;;18.01;100.00
10796;BME280;5450;42.994;23.372;2022-08-19T03:16:05;96107.00;;;17.96;100.00
10796;BME280;5450;42.994;23.372;2022-08-19T03:18:33;96076.84;;;17.84;100.00
10796;BME280;5450;42.994;23.372;2022-08-19T03:21:15;96111.38;;;18.09;100.00
10796;BME280;5450;42.994;23.372;2022-08-19T03:23:43;96102.75;;;18.13;100.00
10796;BME280;5450;42.994;23.372;2022-08-19T03:26:10;96102.59;;;18.08;100.00
10796;BME280;5450;42.994;23.372;2022-08-19T03:28:38;96103.13;;;18.17;100.00
10796;BME280;5450;42.994;23.372;2022-08-19T03:31:10;96109.91;;;18.13;100.00
10796;BME280;5450;42.994;23.372;2022-08-19T03:33:38;96109.25;;;18.17;100.00
10796;BME280;5450;42.994;23.372;2022-08-19T03:36:08;96106.75;;;18.23;100.00
10796;BME280;5450;42.994;23.372;2022-08-19T03:38:37;96110.50;;;18.15;100.00
10796;BME280;5450;42.994;23.372;2022-08-19T03:41:06;96106.28;;;18.07;100.00
10796;BME280;5450;42.994;23.372;2022-08-19T03:43:35;96110.19;;;18.05;100.00
10796;BME280;5450;42.994;23.372;2022-08-19T03:46:07;96074.91;;;17.73;100.00
10796;BME280;5450;42.994;23.372;2022-08-19T03:48:35;96083.47;;;17.75;100.00
10796;BME280;5450;42.994;23.372;2022-08-19T03:51:04;96103.84;;;17.81;100.00
10796;BME280;5450;42.994;23.372;2022-08-19T03:53:51;96116.00;;;17.95;100.00
10796;BME280;5450;42.994;23.372;2022-08-19T03:56:22;96106.69;;;17.86;100.00
10796;BME280;5450;42.994;23.372;2022-08-19T03:58:58;96120.56;;;17.88;100.00
10796;BME280;5450;42.994;23.372;2022-08-19T04:01:30;96119.56;;;17.83;100.00
10796;BME280;5450;42.994;23.372;2022-08-19T04:03:58;96122.84;;;17.60;100.00
10796;BME280;5450;42.994;23.372;2022-08-19T04:09:54;96135.44;;;17.71;100.00
10796;BME280;5450;42.994;23.372;2022-08-19T04:12:22;96120.78;;;17.62;100.00
10796;BME280;5450;42.994;23.372;2022-08-19T04:14:58;96130.03;;;17.47;100.00
10796;BME280;5450;42.994;23.372;2022-08-19T04:17:57;96139.38;;;17.62;100.00
10796;BME280;5450;42.994;23.372;2022-08-19T04:20:24;96135.97;;;17.42;100.00
10796;BME280;5450;42.994;23.372;2022-08-19T04:22:51;96148.81;;;17.58;100.00
10796;BME280;5450;42.994;23.372;2022-08-19T04:25:18;96130.25;;;17.45;100.00
10796;BME280;5450;42.994;23.372;2022-08-19T04:27:51;96130.44;;;17.43;100.00
10796;BME280;5450;42.994;23.372;2022-08-19T04:30:21;96151.69;;;17.50;100.00
10796;BME280;5450;42.994;23.372;2022-08-19T04:39:42;96145.38;;;17.51;100.00
10796;BME280;5450;42.994;23.372;2022-08-19T04:42:26;96120.09;;;17.35;100.00
10796;BME280;5450;42.994;23.372;2022-08-19T04:45:07;96144.72;;;17.56;100.00
10796;BME280;5450;42.994;23.372;2022-08-19T04:47:35;96156.81;;;17.52;100.00
10796;BME280;5450;42.994;23.372;2022-08-19T04:50:07;96124.88;;;17.58;100.00
10796;BME280;5450;42.994;23.372;2022-08-19T04:56:20;96133.38;;;17.73;100.00
10796;BME280;5450;42.994;23.372;2022-08-19T05:02:31;96134.69;;;17.82;100.00
10796;BME280;5450;42.994;23.372;2022-08-19T05:05:24;96136.47;;;17.95;100.00
10796;BME280;5450;42.994;23.372;2022-08-19T05:07:51;96135.72;;;18.12;100.00
10796;BME280;5450;42.994;23.372;2022-08-19T05:10:19;96132.53;;;18.22;100.00
10796;BME280;5450;42.994;23.372;2022-08-19T05:12:48;96141.69;;;18.51;100.00
10796;BME280;5450;42.994;23.372;2022-08-19T05:15:15;96134.16;;;18.66;100.00
10796;BME280;5450;42.994;23.372;2022-08-19T05:17:42;96154.84;;;18.82;100.00
10796;BME280;5450;42.994;23.372;2022-08-19T05:20:29;96129.72;;;18.96;100.00
10796;BME280;5450;42.994;23.372;2022-08-19T05:23:45;96133.97;;;19.15;100.00
10796;BME280;5450;42.994;23.372;2022-08-19T05:26:14;96153.50;;;19.27;100.00
10796;BME280;5450;42.994;23.372;2022-08-19T05:28:44;96109.97;;;19.33;100.00
10796;BME280;5450;42.994;23.372;2022-08-19T05:31:17;96123.25;;;19.51;100.00
10796;BME280;5450;42.994;23.372;2022-08-19T05:33:46;96150.44;;;19.72;100.00
10796;BME280;5450;42.994;23.372;2022-08-19T05:36:16;96123.66;;;19.66;100.00
10796;BME280;5450;42.994;23.372;2022-08-19T05:38:45;96085.66;;;19.59;100.00
10796;BME280;5450;42.994;23.372;2022-08-19T05:41:16;96047.75;;;19.57;100.00
10796;BME280;5450;42.994;23.372;2022-08-19T05:43:46;96136.06;;;20.25;100.00
10796;BME280;5450;42.994;23.372;2022-08-19T05:46:17;96063.75;;;19.81;100.00
10796;BME280;5450;42.994;23.372;2022-08-19T05:49:19;96127.34;;;20.53;100.00
10796;BME280;5450;42.994;23.372;2022-08-19T05:52:21;96121.44;;;20.63;100.00
10796;BME280;5450;42.994;23.372;2022-08-19T05:54:48;96112.16;;;20.65;100.00
10796;BME280;5450;42.994;23.372;2022-08-19T05:57:22;96120.09;;;20.88;100.00
10796;BME280;5450;42.994;23.372;2022-08-19T05:59:51;96130.41;;;21.08;100.00
10796;BME280;5450;42.994;23.372;2022-08-19T06:02:20;96117.94;;;21.25;100.00
10796;BME280;5450;42.994;23.372;2022-08-19T06:04:53;96101.75;;;21.32;100.00
10796;BME280;5450;42.994;23.372;2022-08-19T06:07:20;96116.63;;;21.56;100.00
10796;BME280;5450;42.994;23.372;2022-08-19T06:10:21;96115.59;;;21.85;100.00
10796;BME280;5450;42.994;23.372;2022-08-19T06:13:07;96135.84;;;21.98;100.00
10796;BME280;5450;42.994;23.372;2022-08-19T06:15:37;96123.78;;;21.95;100.00
10796;BME280;5450;42.994;23.372;2022-08-19T06:18:07;96129.28;;;22.22;100.00
10796;BME280;5450;42.994;23.372;2022-08-19T06:20:34;96117.19;;;22.36;100.00
10796;BME280;5450;42.994;23.372;2022-08-19T06:23:01;96138.09;;;22.55;100.00
10796;BME280;5450;42.994;23.372;2022-08-19T06:25:32;96095.91;;;22.63;100.00
10796;BME280;5450;42.994;23.372;2022-08-19T06:28:04;96123.38;;;22.75;100.00
10796;BME280;5450;42.994;23.372;2022-08-19T06:33:53;96110.34;;;23.00;100.00
10796;BME280;5450;42.994;23.372;2022-08-19T06:36:26;96087.13;;;23.10;100.00
10796;BME280;5450;42.994;23.372;2022-08-19T06:38:58;96119.69;;;23.41;100.00
10796;BME280;5450;42.994;23.372;2022-08-19T06:41:35;96088.41;;;23.51;99.46
10796;BME280;5450;42.994;23.372;2022-08-19T06:44:05;96094.75;;;23.72;99.90
10796;BME280;5450;42.994;23.372;2022-08-19T06:46:37;96108.09;;;23.93;100.00
10796;BME280;5450;42.994;23.372;2022-08-19T06:49:30;96101.34;;;24.13;97.16
10796;BME280;5450;42.994;23.372;2022-08-19T06:52:04;96103.00;;;24.24;97.62
10796;BME280;5450;42.994;23.372;2022-08-19T06:57:38;96106.47;;;24.61;94.28
10796;BME280;5450;42.994;23.372;2022-08-19T07:00:06;96071.59;;;24.66;95.77
10796;BME280;5450;42.994;23.372;2022-08-19T07:03:13;96098.13;;;25.04;93.61
10796;BME280;5450;42.994;23.372;2022-08-19T07:05:43;96078.25;;;25.05;92.85
10796;BME280;5450;42.994;23.372;2022-08-19T07:08:16;96081.00;;;25.30;89.23
10796;BME280;5450;42.994;23.372;2022-08-19T07:10:52;96099.94;;;25.66;91.67
10796;BME280;5450;42.994;23.372;2022-08-19T07:13:23;96095.69;;;25.90;89.37
10796;BME280;5450;42.994;23.372;2022-08-19T07:15:51;96074.66;;;25.87;89.54
10796;BME280;5450;42.994;23.372;2022-08-19T07:18:18;96101.63;;;26.17;88.08
10796;BME280;5450;42.994;23.372;2022-08-19T07:20:49;96105.13;;;26.33;86.89
10796;BME280;5450;42.994;23.372;2022-08-19T07:23:21;96066.31;;;26.39;86.58
10796;BME280;5450;42.994;23.372;2022-08-19T07:25:57;96101.56;;;26.77;84.67
10796;BME280;5450;42.994;23.372;2022-08-19T07:31:46;96082.75;;;27.26;80.06
10796;BME280;5450;42.994;23.372;2022-08-19T07:37:50;96082.78;;;27.70;77.69
10796;BME280;5450;42.994;23.372;2022-08-19T07:40:18;96067.03;;;27.87;75.44
10796;BME280;5450;42.994;23.372;2022-08-19T07:43:12;96057.22;;;28.01;76.23
10796;BME280;5450;42.994;23.372;2022-08-19T07:45:42;96041.00;;;28.01;77.50
10796;BME280;5450;42.994;23.372;2022-08-19T07:51:27;96030.28;;;28.48;68.84
10796;BME280;5450;42.994;23.372;2022-08-19T08:04:00;95973.50;;;29.14;67.99
10796;BME280;5450;42.994;23.372;2022-08-19T08:07:11;96059.06;;;29.90;63.31
10796;BME280;5450;42.994;23.372;2022-08-19T08:16:43;96040.38;;;30.53;61.55
10796;BME280;5450;42.994;23.372;2022-08-19T08:22:47;96032.47;;;30.70;63.25
10796;BME280;5450;42.994;23.372;2022-08-19T08:25:33;96021.03;;;30.73;63.46
10796;BME280;5450;42.994;23.372;2022-08-19T08:31:35;96013.47;;;30.97;59.15
10796;BME280;5450;42.994;23.372;2022-08-19T08:34:28;96019.59;;;31.16;55.44
10796;BME280;5450;42.994;23.372;2022-08-19T08:36:55;96008.91;;;31.33;56.59
10796;BME280;5450;42.994;23.372;2022-08-19T08:39:25;96024.88;;;31.71;52.05
10796;BME280;5450;42.994;23.372;2022-08-19T08:45:16;96001.78;;;32.48;46.38
10796;BME280;5450;42.994;23.372;2022-08-19T08:51:29;95973.53;;;32.75;47.65
10796;BME280;5450;42.994;23.372;2022-08-19T08:54:05;95921.84;;;32.83;43.43
10796;BME280;5450;42.994;23.372;2022-08-19T08:57:00;95983.66;;;33.48;42.57
10796;BME280;5450;42.994;23.372;2022-08-19T08:59:36;95971.34;;;33.59;42.91
10796;BME280;5450;42.994;23.372;2022-08-19T09:02:08;95982.84;;;33.82;42.82
10796;BME280;5450;42.994;23.372;2022-08-19T09:04:36;95935.41;;;33.74;39.73
10796;BME280;5450;42.994;23.372;2022-08-19T09:11:10;95977.81;;;34.18;35.57
10796;BME280;5450;42.994;23.372;2022-08-19T09:13:51;95929.13;;;33.91;34.51
10796;BME280;5450;42.994;23.372;2022-08-19T09:20:05;95949.47;;;34.48;35.12
10796;BME280;5450;42.994;23.372;2022-08-19T09:22:58;95967.84;;;34.77;34.03
10796;BME280;5450;42.994;23.372;2022-08-19T09:25:50;95952.50;;;34.93;32.63
10796;BME280;5450;42.994;23.372;2022-08-19T09:32:01;95956.47;;;35.04;34.05
10796;BME280;5450;42.994;23.372;2022-08-19T09:38:12;95951.56;;;35.18;32.56
10796;BME280;5450;42.994;23.372;2022-08-19T09:44:45;95949.63;;;35.39;33.33
10796;BME280;5450;42.994;23.372;2022-08-19T09:51:04;95902.50;;;35.22;33.34
10796;BME280;5450;42.994;23.372;2022-08-19T09:53:37;95937.69;;;35.44;31.97
10796;BME280;5450;42.994;23.372;2022-08-19T09:59:47;95934.75;;;35.69;32.59
10796;BME280;5450;42.994;23.372;2022-08-19T10:05:49;95904.91;;;35.64;31.75
10796;BME280;5450;42.994;23.372;2022-08-19T10:08:23;95858.13;;;35.45;32.36
10796;BME280;5450;42.994;23.372;2022-08-19T10:11:17;95914.84;;;36.02;32.28
10796;BME280;5450;42.994;23.372;2022-08-19T10:17:21;95913.44;;;35.96;29.57
10796;BME280;5450;42.994;23.372;2022-08-19T10:19:51;95901.50;;;36.00;29.84
10796;BME280;5450;42.994;23.372;2022-08-19T10:29:22;95894.16;;;35.92;30.41
10796;BME280;5450;42.994;23.372;2022-08-19T10:35:49;95893.81;;;35.94;31.08
10796;BME280;5450;42.994;23.372;2022-08-19T10:41:50;95896.31;;;35.87;31.20
10796;BME280;5450;42.994;23.372;2022-08-19T10:44:23;95902.50;;;35.96;30.12
10796;BME280;5450;42.994;23.372;2022-08-19T10:50:28;95868.75;;;35.79;30.39
10796;BME280;5450;42.994;23.372;2022-08-19T10:56:46;95871.00;;;35.77;30.71
10796;BME280;5450;42.994;23.372;2022-08-19T10:59:59;95884.69;;;35.90;30.73
10796;BME280;5450;42.994;23.372;2022-08-19T11:06:03;95822.13;;;35.43;29.98
10796;BME280;5450;42.994;23.372;2022-08-19T11:11:56;95880.84;;;35.91;31.20
10796;BME280;5450;42.994;23.372;2022-08-19T11:14:24;95857.09;;;35.83;29.74
10796;BME280;5450;42.994;23.372;2022-08-19T11:16:56;95826.09;;;35.66;29.55
10796;BME280;5450;42.994;23.372;2022-08-19T11:19:57;95871.13;;;35.93;29.95
10796;BME280;5450;42.994;23.372;2022-08-19T11:22:25;95881.06;;;35.86;29.11
10796;BME280;5450;42.994;23.372;2022-08-19T11:28:14;95825.63;;;35.32;29.83
10796;BME280;5450;42.994;23.372;2022-08-19T11:30:44;95855.47;;;35.37;29.58
10796;BME280;5450;42.994;23.372;2022-08-19T11:33:13;95844.66;;;35.40;29.43
10796;BME280;5450;42.994;23.372;2022-08-19T11:35:42;95829.19;;;35.44;28.77
10796;BME280;5450;42.994;23.372;2022-08-19T11:38:14;95845.53;;;35.53;29.33
10796;BME280;5450;42.994;23.372;2022-08-19T11:40:57;95870.66;;;35.67;29.48
10796;BME280;5450;42.994;23.372;2022-08-19T11:46:47;95813.22;;;35.34;28.48
10796;BME280;5450;42.994;23.372;2022-08-19T11:49:20;95838.16;;;35.65;28.04
10796;BME280;5450;42.994;23.372;2022-08-19T11:55:29;95838.22;;;35.77;27.84
10796;BME280;5450;42.994;23.372;2022-08-19T11:57:58;95824.69;;;35.48;28.42
10796;BME280;5450;42.994;23.372;2022-08-19T12:00:37;95826.41;;;35.53;29.42
10796;BME280;5450;42.994;23.372;2022-08-19T12:03:35;95823.56;;;35.61;28.69
10796;BME280;5450;42.994;23.372;2022-08-19T12:06:41;95821.94;;;35.48;28.85
10796;BME280;5450;42.994;23.372;2022-08-19T12:09:36;95820.34;;;35.47;28.18
10796;BME280;5450;42.994;23.372;2022-08-19T12:12:11;95805.25;;;35.29;29.77
10796;BME280;5450;42.994;23.372;2022-08-19T12:14:40;95792.13;;;35.23;29.64
10796;BME280;5450;42.994;23.372;2022-08-19T12:17:09;95798.66;;;35.30;28.84
10796;BME280;5450;42.994;23.372;2022-08-19T12:20:08;95812.00;;;35.44;30.66
10796;BME280;5450;42.994;23.372;2022-08-19T12:26:04;95728.31;;;34.74;32.00
10796;BME280;5450;42.994;23.372;2022-08-19T12:28:35;95737.47;;;34.49;31.30
10796;BME280;5450;42.994;23.372;2022-08-19T12:31:04;95779.97;;;34.79;30.37
10796;BME280;5450;42.994;23.372;2022-08-19T12:33:33;95782.75;;;34.91;31.43
10796;BME280;5450;42.994;23.372;2022-08-19T12:39:40;95799.25;;;34.94;31.13
10796;BME280;5450;42.994;23.372;2022-08-19T12:42:12;95797.16;;;35.00;30.83
10796;BME280;5450;42.994;23.372;2022-08-19T12:44:45;95786.75;;;34.73;32.23
10796;BME280;5450;42.994;23.372;2022-08-19T12:47:15;95784.22;;;34.68;32.59
10796;BME280;5450;42.994;23.372;2022-08-19T12:49:44;95749.72;;;34.43;32.47
10796;BME280;5450;42.994;23.372;2022-08-19T12:52:15;95805.41;;;34.71;32.25
10796;BME280;5450;42.994;23.372;2022-08-19T12:54:42;95790.41;;;34.56;32.62
10796;BME280;5450;42.994;23.372;2022-08-19T12:57:13;95756.69;;;34.31;32.35
10796;BME280;5450;42.994;23.372;2022-08-19T12:59:43;95797.63;;;34.61;33.21
10796;BME280;5450;42.994;23.372;2022-08-19T13:02:16;95789.00;;;34.50;32.62
10796;BME280;5450;42.994;23.372;2022-08-19T13:08:13;95795.63;;;34.41;32.71
10796;BME280;5450;42.994;23.372;2022-08-19T13:10:42;95791.03;;;34.32;32.35
10796;BME280;5450;42.994;23.372;2022-08-19T13:13:21;95771.59;;;34.05;33.73
10796;BME280;5450;42.994;23.372;2022-08-19T13:16:00;95773.22;;;34.06;32.73
10796;BME280;5450;42.994;23.372;2022-08-19T13:18:31;95783.31;;;34.05;33.44
10796;BME280;5450;42.994;23.372;2022-08-19T13:21:02;95763.81;;;33.86;32.94
10796;BME280;5450;42.994;23.372;2022-08-19T13:23:32;95776.75;;;34.06;33.77
10796;BME280;5450;42.994;23.372;2022-08-19T13:26:04;95771.47;;;34.01;34.24
10796;BME280;5450;42.994;23.372;2022-08-19T13:28:36;95779.94;;;34.00;33.69
10796;BME280;5450;42.994;23.372;2022-08-19T13:31:25;95766.81;;;34.02;33.62
10796;BME280;5450;42.994;23.372;2022-08-19T13:34:10;95775.28;;;34.00;33.52
10796;BME280;5450;42.994;23.372;2022-08-19T13:36:40;95765.84;;;33.98;34.15
10796;BME280;5450;42.994;23.372;2022-08-19T13:39:13;95779.16;;;33.99;34.55
10796;BME280;5450;42.994;23.372;2022-08-19T13:41:47;95768.13;;;33.96;34.03
10796;BME280;5450;42.994;23.372;2022-08-19T13:44:20;95757.97;;;33.96;33.80
10796;BME280;5450;42.994;23.372;2022-08-19T13:46:51;95757.75;;;33.81;33.69
10796;BME280;5450;42.994;23.372;2022-08-19T13:52:56;95747.25;;;33.62;35.21
10796;BME280;5450;42.994;23.372;2022-08-19T13:55:54;95757.50;;;33.65;34.88
10796;BME280;5450;42.994;23.372;2022-08-19T13:58:22;95712.72;;;33.37;34.92
10796;BME280;5450;42.994;23.372;2022-08-19T14:00:51;95748.84;;;33.63;35.20
10796;BME280;5450;42.994;23.372;2022-08-19T14:03:21;95749.16;;;33.61;35.19
10796;BME280;5450;42.994;23.372;2022-08-19T14:05:49;95747.06;;;33.67;35.10
10796;BME280;5450;42.994;23.372;2022-08-19T14:08:19;95751.06;;;33.70;34.46
10796;BME280;5450;42.994;23.372;2022-08-19T14:10:48;95740.34;;;33.65;34.83
10796;BME280;5450;42.994;23.372;2022-08-19T14:17:23;95751.78;;;33.41;36.21
10796;BME280;5450;42.994;23.372;2022-08-19T14:19:57;95744.41;;;33.41;35.46
10796;BME280;5450;42.994;23.372;2022-08-19T14:22:48;95751.34;;;33.30;36.77
10796;BME280;5450;42.994;23.372;2022-08-19T14:28:45;95747.69;;;33.18;36.56
10796;BME280;5450;42.994;23.372;2022-08-19T14:31:19;95747.22;;;33.16;36.90
10796;BME280;5450;42.994;23.372;2022-08-19T14:34:28;95741.94;;;33.11;36.06
10796;BME280;5450;42.994;23.372;2022-08-19T14:37:00;95736.31;;;33.07;36.15
10796;BME280;5450;42.994;23.372;2022-08-19T14:39:29;95725.78;;;32.80;37.42
10796;BME280;5450;42.994;23.372;2022-08-19T14:41:56;95740.03;;;33.03;35.86
10796;BME280;5450;42.994;23.372;2022-08-19T14:45:01;95733.59;;;32.99;35.91
10796;BME280;5450;42.994;23.372;2022-08-19T14:47:30;95687.56;;;32.68;35.30
10796;BME280;5450;42.994;23.372;2022-08-19T14:49:59;95679.41;;;32.59;34.97
10796;BME280;5450;42.994;23.372;2022-08-19T14:52:28;95664.81;;;32.38;35.47
10796;BME280;5450;42.994;23.372;2022-08-19T14:54:58;95711.69;;;32.78;35.14
10796;BME280;5450;42.994;23.372;2022-08-19T14:57:25;95709.16;;;32.56;35.38
10796;BME280;5450;42.994;23.372;2022-08-19T14:59:52;95712.53;;;32.61;34.83
10796;BME280;5450;42.994;23.372;2022-08-19T15:02:53;95736.50;;;32.85;35.53
10796;BME280;5450;42.994;23.372;2022-08-19T15:05:31;95714.44;;;32.69;35.09
10796;BME280;5450;42.994;23.372;2022-08-19T15:15:01;95727.69;;;32.62;36.23
10796;BME280;5450;42.994;23.372;2022-08-19T15:17:31;95709.25;;;32.42;36.58
10796;BME280;5450;42.994;23.372;2022-08-19T15:23:56;95731.84;;;32.43;36.90
10796;BME280;5450;42.994;23.372;2022-08-19T15:30:05;95672.72;;;31.75;37.55
10796;BME280;5450;42.994;23.372;2022-08-19T15:36:02;95698.47;;;31.86;37.58
10796;BME280;5450;42.994;23.372;2022-08-19T15:38:31;95699.91;;;31.83;38.50
10796;BME280;5450;42.994;23.372;2022-08-19T15:54:59;95738.19;;;31.65;38.67
10796;BME280;5450;42.994;23.372;2022-08-19T15:57:32;95713.13;;;31.37;39.01
10796;BME280;5450;42.994;23.372;2022-08-19T16:03:39;95737.41;;;31.33;40.52
10796;BME280;5450;42.994;23.372;2022-08-19T16:10:09;95742.31;;;31.23;42.16
10796;BME280;5450;42.994;23.372;2022-08-19T16:12:41;95683.44;;;30.79;43.56
10796;BME280;5450;42.994;23.372;2022-08-19T16:15:09;95740.16;;;31.11;43.43
10796;BME280;5450;42.994;23.372;2022-08-19T16:18:11;95734.78;;;30.98;42.73
10796;BME280;5450;42.994;23.372;2022-08-19T16:24:04;95712.59;;;30.51;43.71
10796;BME280;5450;42.994;23.372;2022-08-19T16:27:04;95740.97;;;30.54;46.04
10796;BME280;5450;42.994;23.372;2022-08-19T16:29:31;95729.88;;;30.42;45.46
10796;BME280;5450;42.994;23.372;2022-08-19T16:32:01;95695.75;;;29.78;49.46
10796;BME280;5450;42.994;23.372;2022-08-19T16:34:29;95746.69;;;30.17;50.05
10796;BME280;5450;42.994;23.372;2022-08-19T16:36:57;95765.38;;;30.05;50.41
10796;BME280;5450;42.994;23.372;2022-08-19T16:39:24;95742.13;;;29.90;51.50
10796;BME280;5450;42.994;23.372;2022-08-19T16:41:51;95750.34;;;29.71;53.24
10796;BME280;5450;42.994;23.372;2022-08-19T16:44:23;95759.13;;;29.63;54.57
10796;BME280;5450;42.994;23.372;2022-08-19T16:46:53;95714.00;;;29.18;55.05
10796;BME280;5450;42.994;23.372;2022-08-19T16:49:20;95693.19;;;28.68;57.84
10796;BME280;5450;42.994;23.372;2022-08-19T16:51:50;95725.56;;;29.05;56.50
10796;BME280;5450;42.994;23.372;2022-08-19T16:54:49;95768.41;;;28.98;59.13
10796;BME280;5450;42.994;23.372;2022-08-19T16:57:21;95750.22;;;28.71;59.31
10796;BME280;5450;42.994;23.372;2022-08-19T16:59:52;95773.44;;;28.72;60.24
10796;BME280;5450;42.994;23.372;2022-08-19T17:02:21;95749.31;;;28.38;61.42